createdAt,value
2019-06-07T00:00:47.876Z,99806.22
2019-06-07T00:03:26.634Z,99802.66
2019-06-07T00:05:45.287Z,99808.65
2019-06-07T00:08:22.586Z,99803.77
2019-06-07T00:10:42.880Z,99806.55
2019-06-07T00:13:12.877Z,99804.23
2019-06-07T00:15:40.390Z,99801.39
2019-06-07T00:18:11.126Z,99796.16
2019-06-07T00:20:37.692Z,99794.59
2019-06-07T00:23:05.412Z,99802.23
2019-06-07T00:25:33.103Z,99798.88
2019-06-07T00:28:00.856Z,99806.22
2019-06-07T00:30:42.378Z,99798.69
2019-06-07T00:32:58.869Z,99804.44
2019-06-07T00:35:26.659Z,99804.07
2019-06-07T00:37:54.396Z,99810.36
2019-06-07T00:40:31.524Z,99811.26
2019-06-07T00:42:52.410Z,99815.12
2019-06-07T00:45:24.650Z,99812.95
2019-06-07T00:47:52.553Z,99810.47
2019-06-07T00:50:23.964Z,99811.62
2019-06-07T00:55:23.428Z,99823.81
2019-06-07T00:57:50.325Z,99828.39
2019-06-07T01:00:22.363Z,99833.77
2019-06-07T01:02:49.738Z,99831.95
2019-06-07T01:05:22.461Z,99839.47
2019-06-07T01:07:47.215Z,99836.66
2019-06-07T01:10:21.164Z,99845.89
2019-06-07T01:12:45.212Z,99831.11
2019-06-07T01:15:16.211Z,99837.34
2019-06-07T01:18:32.429Z,99838.09
2019-06-07T01:20:14.246Z,99835.53
2019-06-07T01:22:42.141Z,99835.53
2019-06-07T01:25:09.994Z,99832.41
2019-06-07T01:27:37.865Z,99830.02
2019-06-07T01:30:07.779Z,99821.72
2019-06-07T01:32:35.435Z,99825.64
2019-06-07T01:35:03.573Z,99816.34
2019-06-07T01:37:31.248Z,99812.08
2019-06-07T01:39:59.012Z,99813.72
2019-06-07T01:42:29.449Z,99819.63
2019-06-07T01:44:56.491Z,99816.59
2019-06-07T01:47:25.602Z,99820.58
2019-06-07T01:49:53.817Z,99826.73
2019-06-07T01:52:23.542Z,99828.98
2019-06-07T01:54:57.883Z,99831.42
2019-06-07T01:57:38.343Z,99836.59
2019-06-07T01:59:50.586Z,99843.11
2019-06-07T02:02:20.051Z,99845.30
2019-06-07T02:04:48.175Z,99843.14
2019-06-07T02:07:15.948Z,99849.88
2019-06-07T02:09:43.671Z,99859.40
2019-06-07T02:12:25.587Z,99860.02
2019-06-07T02:14:40.883Z,99859.08
2019-06-07T02:17:08.698Z,99857.18
2019-06-07T02:19:36.348Z,99859.16
2019-06-07T02:22:04.064Z,99867.09
2019-06-07T02:24:35.307Z,99864.16
2019-06-07T02:27:01.565Z,99865.62
2019-06-07T02:29:33.060Z,99873.67
2019-06-07T02:32:00.173Z,99871.73
2019-06-07T02:34:34.816Z,99882.16
2019-06-07T02:36:57.709Z,99883.81
2019-06-07T02:39:28.198Z,99886.08
2019-06-07T02:41:55.133Z,99885.39
2019-06-07T02:44:24.070Z,99890.77
2019-06-07T02:46:52.917Z,99893.70
2019-06-07T02:49:24.174Z,99902.19
2019-06-07T02:51:50.887Z,99912.71
2019-06-07T02:54:18.611Z,99913.94
2019-06-07T02:56:58.159Z,99919.59
2019-06-07T02:59:17.967Z,99921.59
2019-06-07T03:01:45.729Z,99917.47
2019-06-07T03:04:14.652Z,99915.98
2019-06-07T03:06:44.041Z,99917.05
2019-06-07T03:09:12.076Z,99917.25
2019-06-07T03:11:42.333Z,99919.20
2019-06-07T03:14:11.775Z,99912.71
2019-06-07T03:16:47.357Z,99915.39
2019-06-07T03:19:22.792Z,99915.48
2019-06-07T03:21:52.521Z,99916.52
2019-06-07T03:24:23.209Z,99931.06
2019-06-07T03:29:21.328Z,99940.97
2019-06-07T03:31:49.077Z,99935.30
2019-06-07T03:34:16.814Z,99936.42
2019-06-07T03:36:44.557Z,99939.73
2019-06-07T03:39:12.270Z,99940.16
2019-06-07T03:41:46.332Z,99946.66
2019-06-07T03:44:09.594Z,99946.02
2019-06-07T03:46:41.184Z,99951.70
2019-06-07T03:49:08.195Z,99944.65
2019-06-07T03:51:39.679Z,99941.04
2019-06-07T03:54:05.607Z,99930.41
2019-06-07T03:56:35.348Z,99922.28
2019-06-07T03:59:03.377Z,99939.18
2019-06-07T04:01:32.349Z,99943.41
2019-06-07T04:04:00.671Z,99956.41
2019-06-07T04:06:30.881Z,99956.73
2019-06-07T04:08:58.050Z,99961.77
2019-06-07T04:11:25.757Z,99968.66
2019-06-07T04:13:53.687Z,99974.93
2019-06-07T04:16:21.524Z,99979.16
2019-06-07T04:18:49.218Z,99982.14
2019-06-07T04:21:16.953Z,99977.91
2019-06-07T04:23:45.674Z,99971.91
2019-06-07T04:26:14.922Z,99971.30
2019-06-07T04:29:31.083Z,99970.49
2019-06-07T04:31:12.429Z,99974.64
2019-06-07T04:33:43.530Z,99977.98
2019-06-07T04:36:10.745Z,99976.77
2019-06-07T04:38:42.600Z,99981.34
2019-06-07T04:41:12.786Z,99986.34
2019-06-07T04:43:42.839Z,99985.85
2019-06-07T04:46:12.108Z,99990.72
2019-06-07T04:48:43.735Z,100001.03
2019-06-07T04:51:16.792Z,99993.66
2019-06-07T04:53:44.613Z,100002.32
2019-06-07T04:56:12.320Z,99999.25
2019-06-07T04:58:41.347Z,100000.09
2019-06-07T05:01:26.225Z,100004.12
2019-06-07T05:03:43.885Z,100006.25
2019-06-07T05:06:08.856Z,100019.43
2019-06-07T05:08:40.578Z,100011.39
2019-06-07T05:11:06.186Z,100014.06
2019-06-07T05:13:37.855Z,100015.16
2019-06-07T05:16:03.617Z,100010.27
2019-06-07T05:18:33.702Z,100019.52
2019-06-07T05:21:00.905Z,100019.43
2019-06-07T05:24:04.378Z,100016.98
2019-06-07T05:25:58.346Z,100018.80
2019-06-07T05:28:26.045Z,100009.52
2019-06-07T05:31:05.268Z,100014.69
2019-06-07T05:33:23.879Z,100009.24
2019-06-07T05:35:51.636Z,100018.70
2019-06-07T05:38:19.369Z,100022.87
2019-06-07T05:40:48.659Z,100020.14
2019-06-07T05:43:25.241Z,100022.02
2019-06-07T05:45:53.232Z,100022.37
2019-06-07T05:48:21.383Z,100029.16
2019-06-07T05:50:56.474Z,100027.61
2019-06-07T05:53:27.195Z,100028.72
2019-06-07T05:55:54.875Z,100031.89
2019-06-07T05:58:22.609Z,100037.64
2019-06-07T06:00:51.051Z,100028.03
2019-06-07T06:03:19.132Z,100027.95
2019-06-07T06:05:54.569Z,100025.27
2019-06-07T06:08:16.755Z,100030.00
2019-06-07T06:10:48.008Z,100034.96
2019-06-07T06:13:14.407Z,100045.43
2019-06-07T06:15:58.532Z,100052.47
2019-06-07T06:18:12.112Z,100050.97
2019-06-07T06:21:05.336Z,100048.21
2019-06-07T06:23:09.667Z,100054.59
2019-06-07T06:25:40.829Z,100053.25
2019-06-07T06:28:12.286Z,100043.84
2019-06-07T06:30:38.137Z,100049.27
2019-06-07T06:33:06.205Z,100046.45
2019-06-07T06:35:33.925Z,100053.87
2019-06-07T06:38:01.790Z,100054.45
2019-06-07T06:40:29.484Z,100058.11
2019-06-07T06:42:57.238Z,100063.63
2019-06-07T06:45:25.261Z,100071.58
2019-06-07T06:47:52.979Z,100061.45
2019-06-07T06:50:20.927Z,100063.35
2019-06-07T06:52:54.056Z,100064.41
2019-06-07T06:55:21.165Z,100069.72
2019-06-07T06:57:51.191Z,100071.37
2019-06-07T07:00:43.030Z,100075.92
2019-06-07T07:03:39.574Z,100075.30
2019-06-07T07:05:25.386Z,100074.83
2019-06-07T07:07:53.320Z,100081.44
2019-06-07T07:10:36.373Z,100068.84
2019-06-07T07:13:05.544Z,100062.95
2019-06-07T07:15:35.651Z,100077.25
2019-06-07T07:18:08.869Z,100077.22
2019-06-07T07:20:35.934Z,100083.70
2019-06-07T07:23:04.086Z,100085.05
2019-06-07T07:25:32.103Z,100091.23
2019-06-07T07:27:59.911Z,100095.42
2019-06-07T07:30:59.301Z,100096.37
2019-06-07T07:34:18.660Z,100104.09
2019-06-07T07:36:22.698Z,100107.72
2019-06-07T07:38:26.330Z,100109.47
2019-06-07T07:41:06.679Z,100115.98
2019-06-07T07:43:24.280Z,100115.66
2019-06-07T07:45:59.376Z,100117.52
2019-06-07T07:48:22.325Z,100122.80
2019-06-07T07:50:54.428Z,100125.98
2019-06-07T07:53:19.835Z,100123.11
2019-06-07T07:55:50.461Z,100127.02
2019-06-07T07:58:17.338Z,100118.78
2019-06-07T08:01:04.747Z,100123.52
2019-06-07T08:03:15.066Z,100125.19
2019-06-07T08:05:44.938Z,100119.71
2019-06-07T08:08:12.544Z,100113.72
2019-06-07T08:10:40.356Z,100115.16
2019-06-07T08:13:24.806Z,100107.30
2019-06-07T08:15:38.832Z,100111.42
2019-06-07T08:18:06.749Z,100112.16
2019-06-07T08:20:34.592Z,100111.41
2019-06-07T08:23:02.260Z,100112.20
2019-06-07T08:25:30.107Z,100117.47
2019-06-07T08:27:59.138Z,100119.97
2019-06-07T08:33:12.064Z,100127.80
2019-06-07T08:38:22.147Z,100128.03
2019-06-07T08:40:26.309Z,100124.50
2019-06-07T08:43:10.638Z,100128.84
2019-06-07T08:45:23.733Z,100119.19
2019-06-07T08:47:57.166Z,100116.13
2019-06-07T08:50:23.130Z,100118.77
2019-06-07T08:52:54.783Z,100126.41
2019-06-07T08:55:20.771Z,100122.92
2019-06-07T08:57:48.452Z,100126.53
2019-06-07T09:00:42.992Z,100123.64
2019-06-07T09:02:48.185Z,100121.57
2019-06-07T09:05:17.391Z,100124.58
2019-06-07T09:07:45.057Z,100125.61
2019-06-07T09:10:15.234Z,100130.14
2019-06-07T09:12:43.362Z,100125.67
2019-06-07T09:15:22.659Z,100128.73
2019-06-07T09:18:29.579Z,100128.37
2019-06-07T09:20:35.086Z,100129.17
2019-06-07T09:22:43.948Z,100124.75
2019-06-07T09:25:21.155Z,100129.80
2019-06-07T09:27:42.865Z,100134.96
2019-06-07T09:30:18.360Z,100140.48
2019-06-07T09:32:41.165Z,100144.41
2019-06-07T09:35:16.844Z,100136.39
2019-06-07T09:38:04.266Z,100127.07
2019-06-07T09:40:24.840Z,100135.45
2019-06-07T09:42:40.246Z,100131.69
2019-06-07T09:45:11.711Z,100129.00
2019-06-07T09:47:37.832Z,100129.11
2019-06-07T09:50:11.837Z,100132.84
2019-06-07T09:52:57.335Z,100129.36
2019-06-07T09:55:19.637Z,100128.84
2019-06-07T09:57:35.963Z,100129.90
2019-06-07T10:00:38.216Z,100133.36
2019-06-07T10:02:37.642Z,100134.98
2019-06-07T10:05:12.189Z,100132.73
2019-06-07T10:07:35.374Z,100132.59
2019-06-07T10:10:22.343Z,100137.69
2019-06-07T10:12:33.310Z,100131.42
2019-06-07T10:15:01.070Z,100145.66
2019-06-07T10:17:28.920Z,100149.77
2019-06-07T10:19:56.723Z,100154.57
2019-06-07T10:22:24.572Z,100153.02
2019-06-07T10:24:52.429Z,100160.86
2019-06-07T10:27:20.989Z,100160.11
2019-06-07T10:29:49.673Z,100156.61
2019-06-07T10:32:17.593Z,100150.77
2019-06-07T10:34:45.859Z,100157.95
2019-06-07T10:37:15.610Z,100157.95
2019-06-07T10:39:48.604Z,100156.31
2019-06-07T10:42:13.106Z,100155.77
2019-06-07T10:44:40.816Z,100158.09
2019-06-07T10:47:10.005Z,100150.27
2019-06-07T10:49:37.886Z,100153.36
2019-06-07T10:52:07.884Z,100147.25
2019-06-07T10:54:35.448Z,100149.80
2019-06-07T10:57:04.751Z,100147.53
2019-06-07T10:59:32.987Z,100152.53
2019-06-07T11:02:01.505Z,100150.86
2019-06-07T11:04:29.167Z,100150.73
2019-06-07T11:06:57.032Z,100156.78
2019-06-07T11:09:24.840Z,100150.06
2019-06-07T11:11:52.587Z,100156.36
2019-06-07T11:14:20.298Z,100151.41
2019-06-07T11:16:48.056Z,100154.98
2019-06-07T11:19:17.804Z,100153.36
2019-06-07T11:21:45.478Z,100149.67
2019-06-07T11:24:14.428Z,100150.16
2019-06-07T11:26:42.345Z,100152.63
2019-06-07T11:29:10.991Z,100149.80
2019-06-07T11:31:39.247Z,100141.56
2019-06-07T11:34:08.228Z,100138.04
2019-06-07T11:36:36.120Z,100135.41
2019-06-07T11:39:06.505Z,100131.42
2019-06-07T11:41:34.259Z,100128.65
2019-06-07T11:44:02.013Z,100127.55
2019-06-07T11:46:29.825Z,100129.02
2019-06-07T11:48:57.505Z,100126.59
2019-06-07T11:51:25.395Z,100128.56
2019-06-07T11:53:53.281Z,100132.48
2019-06-07T11:56:20.961Z,100130.17
2019-06-07T11:58:48.673Z,100137.21
2019-06-07T12:01:18.503Z,100131.45
2019-06-07T12:03:46.086Z,100129.41
2019-06-07T12:06:14.639Z,100127.28
2019-06-07T12:08:43.833Z,100126.27
2019-06-07T12:11:12.195Z,100119.83
2019-06-07T12:13:40.104Z,100124.48
2019-06-07T12:16:09.046Z,100125.02
2019-06-07T12:18:36.947Z,100120.30
2019-06-07T12:21:04.742Z,100117.27
2019-06-07T12:23:32.598Z,100114.02
2019-06-07T12:26:00.301Z,100114.37
2019-06-07T12:28:28.791Z,100110.88
2019-06-07T12:30:57.110Z,100109.93
2019-06-07T12:33:25.013Z,100111.95
2019-06-07T12:35:52.724Z,100113.01
2019-06-07T12:38:21.458Z,100106.28
2019-06-07T12:40:57.729Z,100106.08
2019-06-07T12:43:23.441Z,100101.63
2019-06-07T12:45:51.596Z,100100.48
2019-06-07T12:48:22.923Z,100108.48
2019-06-07T12:50:49.275Z,100102.28
2019-06-07T12:53:24.224Z,100109.05
2019-06-07T12:55:48.643Z,100102.77
2019-06-07T12:58:16.485Z,100099.42
2019-06-07T13:00:44.270Z,100095.87
2019-06-07T13:03:12.016Z,100098.00
2019-06-07T13:05:39.779Z,100092.50
2019-06-07T13:08:07.706Z,100095.20
2019-06-07T13:10:35.718Z,100090.03
2019-06-07T13:13:03.770Z,100079.96
2019-06-07T13:15:31.447Z,100069.48
2019-06-07T13:17:59.175Z,100073.13
2019-06-07T13:20:28.784Z,100066.44
2019-06-07T13:22:56.645Z,100070.27
2019-06-07T13:25:35.007Z,100069.59
2019-06-07T13:27:54.352Z,100063.97
2019-06-07T13:30:23.512Z,100066.75
2019-06-07T13:32:52.226Z,100064.81
2019-06-07T13:35:22.111Z,100063.06
2019-06-07T13:37:50.885Z,100061.54
2019-06-07T13:40:19.813Z,100064.30
2019-06-07T13:42:51.200Z,100067.41
2019-06-07T13:45:20.042Z,100073.00
2019-06-07T13:47:48.650Z,100064.94
2019-06-07T13:50:17.594Z,100062.86
2019-06-07T13:52:46.785Z,100049.99
2019-06-07T13:55:15.517Z,100055.22
2019-06-07T13:57:43.332Z,100042.70
2019-06-07T14:00:11.614Z,100041.56
2019-06-07T14:02:39.897Z,100036.66
2019-06-07T14:05:08.542Z,100031.75
2019-06-07T14:07:36.510Z,100034.58
2019-06-07T14:10:05.320Z,100024.52
2019-06-07T14:12:33.409Z,100017.98
2019-06-07T14:15:01.173Z,100016.37
2019-06-07T14:17:30.953Z,100017.63
2019-06-07T14:19:59.764Z,100015.02
2019-06-07T14:22:28.917Z,100019.13
2019-06-07T14:24:56.951Z,100017.71
2019-06-07T14:27:25.484Z,100012.71
2019-06-07T14:29:53.248Z,100013.75
2019-06-07T14:32:22.681Z,100006.84
2019-06-07T14:34:52.605Z,100007.31
2019-06-07T14:37:20.253Z,100009.81
2019-06-07T14:39:47.988Z,100015.71
2019-06-07T14:42:15.689Z,100023.09
2019-06-07T14:44:46.128Z,100015.59
2019-06-07T14:47:13.877Z,100012.31
2019-06-07T14:49:41.662Z,100015.89
2019-06-07T14:52:09.496Z,100013.72
2019-06-07T14:54:39.246Z,100014.75
2019-06-07T14:57:08.735Z,100013.13
2019-06-07T14:59:36.631Z,100010.37
2019-06-07T15:02:04.320Z,100006.42
2019-06-07T15:04:32.867Z,100007.20
2019-06-07T15:07:01.465Z,100006.40
2019-06-07T15:09:31.038Z,100006.33
2019-06-07T15:11:58.866Z,100002.18
2019-06-07T15:14:27.327Z,100008.72
2019-06-07T15:16:57.147Z,100011.85
2019-06-07T15:19:26.495Z,100010.72
2019-06-07T15:21:54.595Z,100019.06
2019-06-07T15:24:22.475Z,100015.89
2019-06-07T15:26:50.297Z,100015.27
2019-06-07T15:29:18.276Z,100019.23
2019-06-07T15:31:46.071Z,100017.70
2019-06-07T15:34:13.882Z,100017.89
2019-06-07T15:36:41.579Z,100020.42
2019-06-07T15:39:09.376Z,100015.28
2019-06-07T15:41:37.491Z,100009.56
2019-06-07T15:44:05.521Z,100012.23
2019-06-07T15:46:33.706Z,100007.11
2019-06-07T15:49:01.763Z,100012.81
2019-06-07T15:51:30.647Z,100005.13
2019-06-07T15:53:58.784Z,100002.67
2019-06-07T15:56:26.661Z,99998.83
2019-06-07T15:58:54.554Z,99991.44
2019-06-07T16:01:22.400Z,99984.40
2019-06-07T16:03:50.249Z,99983.63
2019-06-07T16:06:19.677Z,99988.23
2019-06-07T16:09:15.870Z,99987.38
2019-06-07T16:11:44.334Z,99984.75
2019-06-07T16:14:12.218Z,99989.67
2019-06-07T16:16:41.365Z,99983.66
2019-06-07T16:19:09.336Z,99990.20
2019-06-07T16:21:37.395Z,99990.71
2019-06-07T16:24:05.589Z,99987.41
2019-06-07T16:26:34.058Z,99989.30
2019-06-07T16:29:02.373Z,99991.77
2019-06-07T16:31:30.207Z,99989.33
2019-06-07T16:33:57.943Z,99989.58
2019-06-07T16:36:25.746Z,99984.42
2019-06-07T16:38:53.434Z,99981.19
2019-06-07T16:41:21.420Z,99984.73
2019-06-07T16:43:49.126Z,99985.30
2019-06-07T16:46:16.976Z,99991.02
2019-06-07T16:48:45.103Z,99985.84
2019-06-07T16:51:12.968Z,99981.20
2019-06-07T16:53:40.779Z,99977.69
2019-06-07T16:56:08.584Z,99977.96
2019-06-07T16:58:37.738Z,99977.69
2019-06-07T17:01:05.697Z,99982.59
2019-06-07T17:03:33.524Z,99971.14
2019-06-07T17:06:01.285Z,99977.11
2019-06-07T17:08:29.023Z,99975.51
2019-06-07T17:10:56.883Z,99969.76
2019-06-07T17:13:33.285Z,99974.39
2019-06-07T17:15:54.475Z,99972.21
2019-06-07T17:18:22.292Z,99970.86
2019-06-07T17:20:57.413Z,99966.21
2019-06-07T17:23:25.239Z,99965.95
2019-06-07T17:25:53.197Z,99969.77
2019-06-07T17:28:20.964Z,99971.41
2019-06-07T17:30:50.411Z,99968.13
2019-06-07T17:33:18.689Z,99969.22
2019-06-07T17:35:54.267Z,99964.50
2019-06-07T17:38:29.524Z,99967.22
2019-06-07T17:41:08.772Z,99966.08
2019-06-07T17:43:50.529Z,99968.83
2019-06-07T17:46:06.228Z,99964.45
2019-06-07T17:48:33.921Z,99971.81
2019-06-07T17:51:01.819Z,99970.19
2019-06-07T17:53:30.597Z,99966.88
2019-06-07T17:55:58.627Z,99966.03
2019-06-07T17:58:27.486Z,99970.57
2019-06-07T18:00:55.407Z,99972.77
2019-06-07T18:03:23.229Z,99965.61
2019-06-07T18:05:54.093Z,99968.64
2019-06-07T18:08:23.985Z,99974.91
2019-06-07T18:10:52.139Z,99969.67
2019-06-07T18:13:20.562Z,99976.45
2019-06-07T18:15:52.943Z,99974.53
2019-06-07T18:18:18.253Z,99971.20
2019-06-07T18:20:47.181Z,99973.66
2019-06-07T18:23:15.409Z,99970.66
2019-06-07T18:25:43.264Z,99967.66
2019-06-07T18:28:11.227Z,99967.91
2019-06-07T18:30:38.942Z,99973.01
2019-06-07T18:33:06.908Z,99966.45
2019-06-07T18:35:35.295Z,99968.89
2019-06-07T18:38:03.342Z,99972.11
2019-06-07T18:40:31.134Z,99971.97
2019-06-07T18:42:59.571Z,99972.77
2019-06-07T18:45:27.856Z,99979.48
2019-06-07T18:47:55.807Z,99974.81
2019-06-07T18:50:23.649Z,99976.30
2019-06-07T18:52:52.608Z,99973.53
2019-06-07T18:55:20.652Z,99983.61
2019-06-07T18:57:48.404Z,99984.91
2019-06-07T19:00:16.657Z,99984.83
2019-06-07T19:02:44.395Z,99990.50
2019-06-07T19:05:12.723Z,99987.72
2019-06-07T19:07:40.979Z,99992.44
2019-06-07T19:10:10.513Z,99993.47
2019-06-07T19:12:38.633Z,99997.53
2019-06-07T19:15:07.304Z,100002.55
2019-06-07T19:17:35.144Z,100002.02
2019-06-07T19:20:03.353Z,100001.73
2019-06-07T19:22:31.118Z,100011.18
2019-06-07T19:25:00.467Z,100019.22
2019-06-07T19:27:28.559Z,100018.25
2019-06-07T19:29:56.759Z,100016.55
2019-06-07T19:32:24.899Z,100018.28
2019-06-07T19:34:53.220Z,100019.61
2019-06-07T19:37:21.172Z,100022.27
2019-06-07T19:39:48.869Z,100023.76
2019-06-07T19:42:16.588Z,100021.08
2019-06-07T19:44:54.631Z,100020.81
2019-06-07T19:47:13.915Z,100022.72
2019-06-07T19:49:41.612Z,100023.23
2019-06-07T19:52:09.807Z,100020.28
2019-06-07T19:54:37.533Z,100026.16
2019-06-07T19:57:05.687Z,100030.08
2019-06-07T19:59:33.423Z,100025.93
2019-06-07T20:02:02.093Z,100025.27
2019-06-07T20:04:30.089Z,100025.69
2019-06-07T20:06:58.237Z,100031.79
2019-06-07T20:09:26.041Z,100028.67
2019-06-07T20:11:54.507Z,100023.39
2019-06-07T20:14:23.117Z,100024.20
2019-06-07T20:16:51.230Z,100022.51
2019-06-07T20:19:19.060Z,100022.47
2019-06-07T20:21:46.746Z,100025.78
2019-06-07T20:24:26.302Z,100026.52
2019-06-07T20:26:47.116Z,100027.98
2019-06-07T20:29:25.962Z,100029.02
2019-06-07T20:31:44.727Z,100029.20
2019-06-07T20:34:13.214Z,100032.30
2019-06-07T20:36:40.985Z,100035.96
2019-06-07T20:39:08.827Z,100035.34
2019-06-07T20:41:37.268Z,100024.12
2019-06-07T20:44:05.852Z,100020.46
2019-06-07T20:46:33.730Z,100021.96
2019-06-07T20:49:02.328Z,100011.43
2019-06-07T20:51:30.125Z,100014.27
2019-06-07T20:53:58.479Z,100011.45
2019-06-07T20:56:26.268Z,100006.87
2019-06-07T20:58:54.111Z,100010.14
2019-06-07T21:01:22.227Z,99997.86
2019-06-07T21:03:50.017Z,100002.72
2019-06-07T21:06:17.925Z,100005.55
2019-06-07T21:08:45.690Z,100001.30
2019-06-07T21:11:13.599Z,99993.70
2019-06-07T21:13:41.362Z,99994.30
2019-06-07T21:16:10.334Z,99990.24
2019-06-07T21:18:38.347Z,99994.84
2019-06-07T21:21:06.459Z,99989.72
2019-06-07T21:23:34.329Z,99994.66
2019-06-07T21:26:03.052Z,99996.62
2019-06-07T21:28:30.954Z,99995.77
2019-06-07T21:30:58.943Z,100000.88
2019-06-07T21:33:26.649Z,99992.93
2019-06-07T21:35:54.495Z,99990.23
2019-06-07T21:38:22.211Z,99997.42
2019-06-07T21:40:50.009Z,99988.75
2019-06-07T21:43:17.800Z,99989.95
2019-06-07T21:45:45.652Z,99991.44
2019-06-07T21:48:14.415Z,99987.69
2019-06-07T21:50:42.502Z,99986.64
2019-06-07T21:53:10.731Z,99985.66
2019-06-07T21:55:38.615Z,99978.11
2019-06-07T21:58:07.042Z,99976.92
2019-06-07T22:01:14.220Z,99979.77
2019-06-07T22:03:42.533Z,99975.79
2019-06-07T22:06:11.768Z,99977.59
2019-06-07T22:08:40.461Z,99978.70
2019-06-07T22:11:08.352Z,99973.16
2019-06-07T22:13:36.321Z,99970.86
2019-06-07T22:16:04.193Z,99974.36
2019-06-07T22:18:31.922Z,99980.01
2019-06-07T22:20:59.678Z,99980.01
2019-06-07T22:23:27.472Z,99983.34
2019-06-07T22:25:55.281Z,99978.99
2019-06-07T22:28:23.291Z,99970.91
2019-06-07T22:30:51.057Z,99970.41
2019-06-07T22:33:19.051Z,99971.92
2019-06-07T22:35:46.947Z,99968.63
2019-06-07T22:38:14.639Z,99965.34
2019-06-07T22:40:42.436Z,99968.48
2019-06-07T22:43:11.835Z,99968.92
2019-06-07T22:45:39.841Z,99962.33
2019-06-07T22:48:08.690Z,99960.83
2019-06-07T22:50:36.708Z,99956.42
2019-06-07T22:53:04.524Z,99957.82
2019-06-07T22:55:32.380Z,99957.41
2019-06-07T22:58:00.586Z,99955.50
2019-06-07T23:00:29.852Z,99949.25
2019-06-07T23:02:57.681Z,99957.59
2019-06-07T23:05:26.283Z,99951.23
2019-06-07T23:07:54.162Z,99950.73
2019-06-07T23:10:22.139Z,99948.03
2019-06-07T23:12:49.866Z,99944.73
2019-06-07T23:15:19.354Z,99937.84
2019-06-07T23:17:49.025Z,99935.59
2019-06-07T23:20:18.066Z,99940.37
2019-06-07T23:22:45.998Z,99928.77
2019-06-07T23:25:18.884Z,99935.13
2019-06-07T23:27:44.673Z,99940.95
2019-06-07T23:30:14.649Z,99934.63
2019-06-07T23:32:42.442Z,99934.83
2019-06-07T23:35:11.009Z,99939.23
2019-06-07T23:37:38.801Z,99948.48
2019-06-07T23:40:07.136Z,99951.20
2019-06-07T23:42:34.984Z,99948.22
2019-06-07T23:45:05.567Z,99943.27
2019-06-07T23:47:33.344Z,99948.88
2019-06-07T23:50:01.053Z,99955.42
2019-06-07T23:52:29.094Z,99960.37
2019-06-07T23:54:56.813Z,99949.66
2019-06-07T23:57:24.575Z,99951.20
2019-06-07T23:59:52.287Z,99954.33
